sensor_id;sensor_type;location;lat;lon;timestamp;pressure;altitude;pressure_sealevel;temperature
28803;BMP280;15949;55.656;37.422;2023-04-15T00:02:15;100578.06;;;0.42
28803;BMP280;15949;55.656;37.422;2023-04-15T00:07:22;100584.56;;;0.33
28803;BMP280;15949;55.656;37.422;2023-04-15T00:12:28;100584.47;;;0.28
28803;BMP280;15949;55.656;37.422;2023-04-15T00:17:34;100583.28;;;0.19
28803;BMP280;15949;55.656;37.422;2023-04-15T00:22:40;100592.31;;;0.09
28803;BMP280;15949;55.656;37.422;2023-04-15T00:27:45;100603.50;;;0.03
28803;BMP280;15949;55.656;37.422;2023-04-15T00:32:52;100603.81;;;0.07
28803;BMP280;15949;55.656;37.422;2023-04-15T00:37:57;100605.28;;;0.03
28803;BMP280;15949;55.656;37.422;2023-04-15T00:43:04;100609.03;;;0.00
28803;BMP280;15949;55.656;37.422;2023-04-15T00:48:10;100613.63;;;-0.02
28803;BMP280;15949;55.656;37.422;2023-04-15T00:53:16;100624.13;;;-0.15
28803;BMP280;15949;55.656;37.422;2023-04-15T00:58:22;100626.56;;;-0.20
28803;BMP280;15949;55.656;37.422;2023-04-15T01:03:28;100636.03;;;-0.20
28803;BMP280;15949;55.656;37.422;2023-04-15T01:08:34;100633.03;;;-0.29
28803;BMP280;15949;55.656;37.422;2023-04-15T01:13:40;100641.59;;;-0.35
28803;BMP280;15949;55.656;37.422;2023-04-15T01:18:47;100637.13;;;-0.40
28803;BMP280;15949;55.656;37.422;2023-04-15T01:23:54;100643.59;;;-0.37
28803;BMP280;15949;55.656;37.422;2023-04-15T01:29:01;100655.75;;;-0.44
28803;BMP280;15949;55.656;37.422;2023-04-15T01:34:06;100662.88;;;-0.46
28803;BMP280;15949;55.656;37.422;2023-04-15T01:39:12;100669.66;;;-0.52
28803;BMP280;15949;55.656;37.422;2023-04-15T01:44:18;100666.41;;;-0.59
28803;BMP280;15949;55.656;37.422;2023-04-15T01:49:23;100670.97;;;-0.61
28803;BMP280;15949;55.656;37.422;2023-04-15T01:54:29;100684.53;;;-0.60
28803;BMP280;15949;55.656;37.422;2023-04-15T01:59:34;100689.09;;;-0.62
28803;BMP280;15949;55.656;37.422;2023-04-15T02:04:40;100692.31;;;-0.67
28803;BMP280;15949;55.656;37.422;2023-04-15T02:09:46;100695.09;;;-0.68
28803;BMP280;15949;55.656;37.422;2023-04-15T02:14:51;100709.44;;;-0.67
28803;BMP280;15949;55.656;37.422;2023-04-15T02:19:57;100707.53;;;-0.72
28803;BMP280;15949;55.656;37.422;2023-04-15T02:25:03;100713.28;;;-0.76
28803;BMP280;15949;55.656;37.422;2023-04-15T02:30:10;100717.06;;;-0.79
28803;BMP280;15949;55.656;37.422;2023-04-15T02:35:15;100712.75;;;-0.90
28803;BMP280;15949;55.656;37.422;2023-04-15T02:40:23;100735.97;;;-0.92
28803;BMP280;15949;55.656;37.422;2023-04-15T02:45:28;100733.97;;;-0.90
28803;BMP280;15949;55.656;37.422;2023-04-15T02:50:34;100748.19;;;-0.94
28803;BMP280;15949;55.656;37.422;2023-04-15T02:55:42;100748.69;;;-1.03
28803;BMP280;15949;55.656;37.422;2023-04-15T03:00:47;100751.47;;;-1.05
28803;BMP280;15949;55.656;37.422;2023-04-15T03:05:55;100758.16;;;-1.04
28803;BMP280;15949;55.656;37.422;2023-04-15T03:11:01;100765.94;;;-0.99
28803;BMP280;15949;55.656;37.422;2023-04-15T03:16:06;100762.41;;;-0.98
28803;BMP280;15949;55.656;37.422;2023-04-15T03:21:12;100769.03;;;-0.90
28803;BMP280;15949;55.656;37.422;2023-04-15T03:26:28;100770.47;;;-0.82
28803;BMP280;15949;55.656;37.422;2023-04-15T03:31:33;100786.78;;;-0.77
28803;BMP280;15949;55.656;37.422;2023-04-15T03:36:39;100786.13;;;-0.72
28803;BMP280;15949;55.656;37.422;2023-04-15T03:41:44;100798.03;;;-0.66
28803;BMP280;15949;55.656;37.422;2023-04-15T03:46:50;100798.47;;;-0.51
28803;BMP280;15949;55.656;37.422;2023-04-15T03:51:56;100795.25;;;-0.47
28803;BMP280;15949;55.656;37.422;2023-04-15T03:57:01;100802.28;;;-0.42
28803;BMP280;15949;55.656;37.422;2023-04-15T04:02:07;100805.28;;;-0.45
28803;BMP280;15949;55.656;37.422;2023-04-15T04:07:16;100805.38;;;-0.40
28803;BMP280;15949;55.656;37.422;2023-04-15T04:12:22;100804.38;;;-0.39
28803;BMP280;15949;55.656;37.422;2023-04-15T04:17:28;100809.00;;;-0.29
28803;BMP280;15949;55.656;37.422;2023-04-15T04:22:37;100805.09;;;-0.32
28803;BMP280;15949;55.656;37.422;2023-04-15T04:27:44;100824.28;;;-0.23
28803;BMP280;15949;55.656;37.422;2023-04-15T04:32:50;100815.38;;;-0.20
28803;BMP280;15949;55.656;37.422;2023-04-15T04:37:55;100820.84;;;-0.17
28803;BMP280;15949;55.656;37.422;2023-04-15T04:43:01;100819.09;;;-0.05
28803;BMP280;15949;55.656;37.422;2023-04-15T04:48:07;100825.09;;;0.01
28803;BMP280;15949;55.656;37.422;2023-04-15T04:53:14;100830.81;;;0.03
28803;BMP280;15949;55.656;37.422;2023-04-15T04:58:20;100831.16;;;0.06
28803;BMP280;15949;55.656;37.422;2023-04-15T05:03:26;100829.25;;;0.14
28803;BMP280;15949;55.656;37.422;2023-04-15T05:08:31;100821.25;;;0.33
28803;BMP280;15949;55.656;37.422;2023-04-15T05:13:37;100839.66;;;0.42
28803;BMP280;15949;55.656;37.422;2023-04-15T05:18:43;100826.50;;;0.38
28803;BMP280;15949;55.656;37.422;2023-04-15T05:23:48;100838.63;;;0.54
28803;BMP280;15949;55.656;37.422;2023-04-15T05:28:54;100830.06;;;0.72
28803;BMP280;15949;55.656;37.422;2023-04-15T05:33:59;100835.28;;;1.00
28803;BMP280;15949;55.656;37.422;2023-04-15T05:39:05;100847.56;;;1.27
28803;BMP280;15949;55.656;37.422;2023-04-15T05:44:11;100851.69;;;1.28
28803;BMP280;15949;55.656;37.422;2023-04-15T05:49:16;100844.75;;;1.40
28803;BMP280;15949;55.656;37.422;2023-04-15T05:54:22;100851.53;;;1.46
28803;BMP280;15949;55.656;37.422;2023-04-15T05:59:28;100850.25;;;1.60
28803;BMP280;15949;55.656;37.422;2023-04-15T06:04:33;100855.50;;;1.65
28803;BMP280;15949;55.656;37.422;2023-04-15T06:09:39;100859.41;;;1.84
28803;BMP280;15949;55.656;37.422;2023-04-15T06:14:45;100851.31;;;1.92
28803;BMP280;15949;55.656;37.422;2023-04-15T06:19:51;100861.28;;;2.06
28803;BMP280;15949;55.656;37.422;2023-04-15T06:24:59;100859.44;;;2.18
28803;BMP280;15949;55.656;37.422;2023-04-15T06:30:06;100864.41;;;2.24
28803;BMP280;15949;55.656;37.422;2023-04-15T06:35:12;100860.47;;;2.55
28803;BMP280;15949;55.656;37.422;2023-04-15T06:40:17;100865.50;;;2.83
28803;BMP280;15949;55.656;37.422;2023-04-15T06:45:23;100869.19;;;3.14
28803;BMP280;15949;55.656;37.422;2023-04-15T06:50:29;100878.91;;;3.34
28803;BMP280;15949;55.656;37.422;2023-04-15T06:55:35;100880.31;;;3.68
28803;BMP280;15949;55.656;37.422;2023-04-15T07:00:41;100884.22;;;3.49
28803;BMP280;15949;55.656;37.422;2023-04-15T07:05:46;100884.41;;;3.69
28803;BMP280;15949;55.656;37.422;2023-04-15T07:10:52;100881.72;;;3.86
28803;BMP280;15949;55.656;37.422;2023-04-15T07:15:58;100878.84;;;4.14
28803;BMP280;15949;55.656;37.422;2023-04-15T07:21:04;100875.28;;;3.88
28803;BMP280;15949;55.656;37.422;2023-04-15T07:26:09;100879.31;;;4.06
28803;BMP280;15949;55.656;37.422;2023-04-15T07:31:15;100867.59;;;4.30
28803;BMP280;15949;55.656;37.422;2023-04-15T07:36:21;100875.78;;;4.17
28803;BMP280;15949;55.656;37.422;2023-04-15T07:41:27;100874.66;;;4.50
28803;BMP280;15949;55.656;37.422;2023-04-15T07:46:33;100874.22;;;4.58
28803;BMP280;15949;55.656;37.422;2023-04-15T07:51:39;100871.97;;;4.82
28803;BMP280;15949;55.656;37.422;2023-04-15T07:56:44;100864.97;;;4.72
28803;BMP280;15949;55.656;37.422;2023-04-15T08:01:50;100878.53;;;5.04
28803;BMP280;15949;55.656;37.422;2023-04-15T08:06:55;100877.53;;;5.21
28803;BMP280;15949;55.656;37.422;2023-04-15T08:12:02;100874.44;;;5.24
28803;BMP280;15949;55.656;37.422;2023-04-15T08:17:08;100866.16;;;5.32
28803;BMP280;15949;55.656;37.422;2023-04-15T08:22:13;100863.09;;;5.35
28803;BMP280;15949;55.656;37.422;2023-04-15T08:27:19;100865.91;;;5.38
28803;BMP280;15949;55.656;37.422;2023-04-15T08:32:25;100877.31;;;5.73
28803;BMP280;15949;55.656;37.422;2023-04-15T08:37:31;100858.69;;;5.55
28803;BMP280;15949;55.656;37.422;2023-04-15T08:42:40;100863.06;;;5.80
28803;BMP280;15949;55.656;37.422;2023-04-15T08:47:54;100872.09;;;6.03
28803;BMP280;15949;55.656;37.422;2023-04-15T08:53:00;100852.19;;;6.03
28803;BMP280;15949;55.656;37.422;2023-04-15T08:58:06;100865.53;;;6.46
28803;BMP280;15949;55.656;37.422;2023-04-15T09:03:12;100851.44;;;6.72
28803;BMP280;15949;55.656;37.422;2023-04-15T09:08:18;100862.72;;;6.96
28803;BMP280;15949;55.656;37.422;2023-04-15T09:13:23;100858.59;;;6.90
28803;BMP280;15949;55.656;37.422;2023-04-15T09:18:34;100854.25;;;6.81
28803;BMP280;15949;55.656;37.422;2023-04-15T09:23:53;100852.25;;;7.06
28803;BMP280;15949;55.656;37.422;2023-04-15T09:29:06;100861.66;;;6.97
28803;BMP280;15949;55.656;37.422;2023-04-15T09:34:12;100861.06;;;7.10
28803;BMP280;15949;55.656;37.422;2023-04-15T09:39:18;100858.03;;;6.93
28803;BMP280;15949;55.656;37.422;2023-04-15T09:44:25;100856.25;;;6.89
28803;BMP280;15949;55.656;37.422;2023-04-15T09:49:31;100853.63;;;6.94
28803;BMP280;15949;55.656;37.422;2023-04-15T09:54:37;100859.41;;;7.24
28803;BMP280;15949;55.656;37.422;2023-04-15T09:59:43;100862.66;;;7.40
28803;BMP280;15949;55.656;37.422;2023-04-15T10:04:49;100852.25;;;7.74
28803;BMP280;15949;55.656;37.422;2023-04-15T10:09:57;100865.72;;;8.05
28803;BMP280;15949;55.656;37.422;2023-04-15T10:15:04;100848.06;;;8.02
28803;BMP280;15949;55.656;37.422;2023-04-15T10:20:11;100859.19;;;8.50
28803;BMP280;15949;55.656;37.422;2023-04-15T10:25:18;100850.28;;;8.56
28803;BMP280;15949;55.656;37.422;2023-04-15T10:30:24;100850.00;;;8.38
28803;BMP280;15949;55.656;37.422;2023-04-15T10:35:31;100845.53;;;8.95
28803;BMP280;15949;55.656;37.422;2023-04-15T10:40:38;100834.81;;;9.34
28803;BMP280;15949;55.656;37.422;2023-04-15T10:45:44;100844.59;;;9.55
28803;BMP280;15949;55.656;37.422;2023-04-15T10:50:56;100840.72;;;9.39
28803;BMP280;15949;55.656;37.422;2023-04-15T10:56:03;100845.53;;;9.59
28803;BMP280;15949;55.656;37.422;2023-04-15T11:01:09;100831.69;;;9.91
28803;BMP280;15949;55.656;37.422;2023-04-15T11:06:15;100843.84;;;9.82
28803;BMP280;15949;55.656;37.422;2023-04-15T11:11:21;100835.88;;;10.28
28803;BMP280;15949;55.656;37.422;2023-04-15T11:16:26;100829.63;;;10.29
28803;BMP280;15949;55.656;37.422;2023-04-15T11:21:32;100831.59;;;10.90
28803;BMP280;15949;55.656;37.422;2023-04-15T11:26:38;100831.50;;;11.26
28803;BMP280;15949;55.656;37.422;2023-04-15T11:31:46;100820.56;;;11.24
28803;BMP280;15949;55.656;37.422;2023-04-15T11:36:57;100822.00;;;11.30
28803;BMP280;15949;55.656;37.422;2023-04-15T11:42:11;100815.53;;;11.27
28803;BMP280;15949;55.656;37.422;2023-04-15T11:47:22;100817.13;;;11.15
28803;BMP280;15949;55.656;37.422;2023-04-15T11:52:27;100815.34;;;11.24
28803;BMP280;15949;55.656;37.422;2023-04-15T11:57:34;100800.28;;;10.90
28803;BMP280;15949;55.656;37.422;2023-04-15T12:02:39;100805.47;;;10.59
28803;BMP280;15949;55.656;37.422;2023-04-15T12:08:00;100801.50;;;10.62
28803;BMP280;15949;55.656;37.422;2023-04-15T12:13:08;100802.84;;;10.37
28803;BMP280;15949;55.656;37.422;2023-04-15T12:18:17;100798.41;;;10.60
28803;BMP280;15949;55.656;37.422;2023-04-15T12:23:23;100793.81;;;10.65
28803;BMP280;15949;55.656;37.422;2023-04-15T12:28:29;100790.88;;;10.80
28803;BMP280;15949;55.656;37.422;2023-04-15T12:33:35;100791.94;;;11.02
28803;BMP280;15949;55.656;37.422;2023-04-15T12:38:40;100797.13;;;11.02
28803;BMP280;15949;55.656;37.422;2023-04-15T12:43:46;100791.53;;;11.17
28803;BMP280;15949;55.656;37.422;2023-04-15T12:48:52;100797.81;;;11.16
28803;BMP280;15949;55.656;37.422;2023-04-15T12:53:57;100794.53;;;11.02
28803;BMP280;15949;55.656;37.422;2023-04-15T12:59:03;100794.03;;;10.69
28803;BMP280;15949;55.656;37.422;2023-04-15T13:04:08;100782.69;;;10.51
28803;BMP280;15949;55.656;37.422;2023-04-15T13:09:14;100786.50;;;10.09
28803;BMP280;15949;55.656;37.422;2023-04-15T13:14:20;100790.50;;;10.29
28803;BMP280;15949;55.656;37.422;2023-04-15T13:19:25;100790.72;;;10.55
28803;BMP280;15949;55.656;37.422;2023-04-15T13:24:31;100806.63;;;10.53
28803;BMP280;15949;55.656;37.422;2023-04-15T13:29:37;100794.91;;;10.42
28803;BMP280;15949;55.656;37.422;2023-04-15T13:34:44;100797.75;;;10.54
28803;BMP280;15949;55.656;37.422;2023-04-15T13:39:50;100781.63;;;10.52
28803;BMP280;15949;55.656;37.422;2023-04-15T13:44:56;100787.56;;;10.44
28803;BMP280;15949;55.656;37.422;2023-04-15T13:50:01;100784.13;;;10.57
28803;BMP280;15949;55.656;37.422;2023-04-15T13:55:07;100797.59;;;10.73
28803;BMP280;15949;55.656;37.422;2023-04-15T14:00:13;100791.53;;;10.64
28803;BMP280;15949;55.656;37.422;2023-04-15T14:05:19;100782.28;;;10.58
28803;BMP280;15949;55.656;37.422;2023-04-15T14:10:24;100785.91;;;10.48
28803;BMP280;15949;55.656;37.422;2023-04-15T14:15:30;100788.25;;;10.36
28803;BMP280;15949;55.656;37.422;2023-04-15T14:20:35;100787.41;;;10.27
28803;BMP280;15949;55.656;37.422;2023-04-15T14:25:41;100792.50;;;10.10
28803;BMP280;15949;55.656;37.422;2023-04-15T14:30:47;100785.50;;;9.70
28803;BMP280;15949;55.656;37.422;2023-04-15T14:35:52;100786.78;;;9.26
28803;BMP280;15949;55.656;37.422;2023-04-15T14:40:58;100786.47;;;9.14
28803;BMP280;15949;55.656;37.422;2023-04-15T14:46:03;100780.94;;;9.02
28803;BMP280;15949;55.656;37.422;2023-04-15T14:51:09;100785.84;;;8.71
28803;BMP280;15949;55.656;37.422;2023-04-15T14:56:14;100776.66;;;8.60
28803;BMP280;15949;55.656;37.422;2023-04-15T15:01:20;100776.97;;;8.40
28803;BMP280;15949;55.656;37.422;2023-04-15T15:06:26;100771.94;;;8.25
28803;BMP280;15949;55.656;37.422;2023-04-15T15:11:32;100777.44;;;8.23
28803;BMP280;15949;55.656;37.422;2023-04-15T15:16:37;100775.81;;;8.27
28803;BMP280;15949;55.656;37.422;2023-04-15T15:21:43;100774.22;;;8.31
28803;BMP280;15949;55.656;37.422;2023-04-15T15:26:48;100771.78;;;8.91
28803;BMP280;15949;55.656;37.422;2023-04-15T15:31:54;100774.38;;;8.72
28803;BMP280;15949;55.656;37.422;2023-04-15T15:36:59;100772.09;;;8.52
28803;BMP280;15949;55.656;37.422;2023-04-15T15:42:05;100768.00;;;8.27
28803;BMP280;15949;55.656;37.422;2023-04-15T15:47:11;100774.56;;;8.01
28803;BMP280;15949;55.656;37.422;2023-04-15T15:52:17;100766.75;;;7.82
28803;BMP280;15949;55.656;37.422;2023-04-15T15:57:23;100760.47;;;7.65
28803;BMP280;15949;55.656;37.422;2023-04-15T16:02:28;100764.81;;;7.46
28803;BMP280;15949;55.656;37.422;2023-04-15T16:07:36;100773.28;;;7.27
28803;BMP280;15949;55.656;37.422;2023-04-15T16:12:41;100780.69;;;7.10
28803;BMP280;15949;55.656;37.422;2023-04-15T16:17:47;100774.03;;;6.99
28803;BMP280;15949;55.656;37.422;2023-04-15T16:22:53;100778.84;;;6.82
28803;BMP280;15949;55.656;37.422;2023-04-15T16:28:00;100774.06;;;6.55
28803;BMP280;15949;55.656;37.422;2023-04-15T16:33:06;100774.16;;;6.30
28803;BMP280;15949;55.656;37.422;2023-04-15T16:38:12;100775.59;;;5.97
28803;BMP280;15949;55.656;37.422;2023-04-15T16:43:17;100773.56;;;5.79
28803;BMP280;15949;55.656;37.422;2023-04-15T16:48:23;100780.06;;;5.61
28803;BMP280;15949;55.656;37.422;2023-04-15T16:53:28;100784.47;;;5.46
28803;BMP280;15949;55.656;37.422;2023-04-15T16:58:34;100781.88;;;5.31
28803;BMP280;15949;55.656;37.422;2023-04-15T17:03:40;100774.38;;;5.14
28803;BMP280;15949;55.656;37.422;2023-04-15T17:08:45;100781.38;;;5.03
28803;BMP280;15949;55.656;37.422;2023-04-15T17:13:51;100777.69;;;4.84
28803;BMP280;15949;55.656;37.422;2023-04-15T17:18:56;100776.66;;;4.70
28803;BMP280;15949;55.656;37.422;2023-04-15T17:24:02;100782.03;;;4.58
28803;BMP280;15949;55.656;37.422;2023-04-15T17:29:08;100782.25;;;4.52
28803;BMP280;15949;55.656;37.422;2023-04-15T17:34:14;100783.22;;;4.41
28803;BMP280;15949;55.656;37.422;2023-04-15T17:39:20;100795.84;;;4.27
28803;BMP280;15949;55.656;37.422;2023-04-15T17:44:25;100791.97;;;4.30
28803;BMP280;15949;55.656;37.422;2023-04-15T17:49:31;100786.81;;;4.30
28803;BMP280;15949;55.656;37.422;2023-04-15T17:54:38;100792.19;;;4.18
28803;BMP280;15949;55.656;37.422;2023-04-15T17:59:43;100789.59;;;4.18
28803;BMP280;15949;55.656;37.422;2023-04-15T18:04:51;100796.56;;;4.18
28803;BMP280;15949;55.656;37.422;2023-04-15T18:09:57;100797.53;;;4.12
28803;BMP280;15949;55.656;37.422;2023-04-15T18:15:03;100788.78;;;4.13
28803;BMP280;15949;55.656;37.422;2023-04-15T18:20:09;100802.75;;;4.17
28803;BMP280;15949;55.656;37.422;2023-04-15T18:25:15;100801.78;;;4.23
28803;BMP280;15949;55.656;37.422;2023-04-15T18:30:20;100802.25;;;4.25
28803;BMP280;15949;55.656;37.422;2023-04-15T18:35:26;100800.69;;;4.24
28803;BMP280;15949;55.656;37.422;2023-04-15T18:40:34;100805.56;;;4.15
28803;BMP280;15949;55.656;37.422;2023-04-15T18:45:40;100806.88;;;4.18
28803;BMP280;15949;55.656;37.422;2023-04-15T18:50:46;100810.75;;;4.20
28803;BMP280;15949;55.656;37.422;2023-04-15T18:55:52;100810.75;;;4.20
28803;BMP280;15949;55.656;37.422;2023-04-15T19:00:58;100806.63;;;4.19
28803;BMP280;15949;55.656;37.422;2023-04-15T19:06:03;100817.97;;;4.23
28803;BMP280;15949;55.656;37.422;2023-04-15T19:11:09;100814.66;;;4.28
28803;BMP280;15949;55.656;37.422;2023-04-15T19:16:14;100826.03;;;4.27
28803;BMP280;15949;55.656;37.422;2023-04-15T19:21:20;100820.31;;;4.25
28803;BMP280;15949;55.656;37.422;2023-04-15T19:26:26;100825.97;;;4.17
28803;BMP280;15949;55.656;37.422;2023-04-15T19:31:32;100827.47;;;4.07
28803;BMP280;15949;55.656;37.422;2023-04-15T19:36:37;100831.78;;;3.97
28803;BMP280;15949;55.656;37.422;2023-04-15T19:41:43;100835.59;;;3.89
28803;BMP280;15949;55.656;37.422;2023-04-15T19:46:49;100835.22;;;4.07
28803;BMP280;15949;55.656;37.422;2023-04-15T19:51:57;100838.38;;;4.25
28803;BMP280;15949;55.656;37.422;2023-04-15T19:57:02;100839.94;;;4.26
28803;BMP280;15949;55.656;37.422;2023-04-15T20:02:08;100835.84;;;4.30
28803;BMP280;15949;55.656;37.422;2023-04-15T20:07:13;100843.06;;;4.28
28803;BMP280;15949;55.656;37.422;2023-04-15T20:12:19;100852.34;;;4.29
28803;BMP280;15949;55.656;37.422;2023-04-15T20:17:25;100857.44;;;4.19
28803;BMP280;15949;55.656;37.422;2023-04-15T20:22:31;100869.34;;;4.20
28803;BMP280;15949;55.656;37.422;2023-04-15T20:27:37;100866.75;;;4.20
28803;BMP280;15949;55.656;37.422;2023-04-15T20:32:43;100869.34;;;4.20
28803;BMP280;15949;55.656;37.422;2023-04-15T20:37:48;100858.78;;;4.21
28803;BMP280;15949;55.656;37.422;2023-04-15T20:42:54;100863.19;;;4.26
28803;BMP280;15949;55.656;37.422;2023-04-15T20:48:00;100863.69;;;4.28
28803;BMP280;15949;55.656;37.422;2023-04-15T20:53:05;100871.94;;;4.25
28803;BMP280;15949;55.656;37.422;2023-04-15T20:58:11;100865.75;;;4.26
28803;BMP280;15949;55.656;37.422;2023-04-15T21:03:17;100876.09;;;4.26
28803;BMP280;15949;55.656;37.422;2023-04-15T21:08:22;100861.59;;;4.20
28803;BMP280;15949;55.656;37.422;2023-04-15T21:13:33;100872.91;;;4.14
28803;BMP280;15949;55.656;37.422;2023-04-15T21:18:39;100874.94;;;4.06
28803;BMP280;15949;55.656;37.422;2023-04-15T21:23:44;100873.06;;;3.97
28803;BMP280;15949;55.656;37.422;2023-04-15T21:28:50;100878.97;;;3.97
28803;BMP280;15949;55.656;37.422;2023-04-15T21:33:55;100881.31;;;3.99
28803;BMP280;15949;55.656;37.422;2023-04-15T21:39:01;100892.91;;;3.96
28803;BMP280;15949;55.656;37.422;2023-04-15T21:44:07;100897.50;;;3.89
28803;BMP280;15949;55.656;37.422;2023-04-15T21:49:12;100899.75;;;3.81
28803;BMP280;15949;55.656;37.422;2023-04-15T21:54:18;100911.78;;;3.70
28803;BMP280;15949;55.656;37.422;2023-04-15T21:59:24;100906.56;;;3.65
28803;BMP280;15949;55.656;37.422;2023-04-15T22:04:30;100917.75;;;3.49
28803;BMP280;15949;55.656;37.422;2023-04-15T22:09:36;100910.97;;;3.43
28803;BMP280;15949;55.656;37.422;2023-04-15T22:14:41;100917.16;;;3.42
28803;BMP280;15949;55.656;37.422;2023-04-15T22:19:47;100919.69;;;3.37
28803;BMP280;15949;55.656;37.422;2023-04-15T22:24:53;100920.59;;;3.26
28803;BMP280;15949;55.656;37.422;2023-04-15T22:29:58;100916.63;;;3.18
28803;BMP280;15949;55.656;37.422;2023-04-15T22:35:04;100919.94;;;3.14
28803;BMP280;15949;55.656;37.422;2023-04-15T22:40:11;100932.88;;;3.19
28803;BMP280;15949;55.656;37.422;2023-04-15T22:45:16;100935.41;;;3.14
28803;BMP280;15949;55.656;37.422;2023-04-15T22:50:22;100934.31;;;3.10
28803;BMP280;15949;55.656;37.422;2023-04-15T22:55:28;100935.25;;;3.03
28803;BMP280;15949;55.656;37.422;2023-04-15T23:00:33;100931.84;;;2.98
28803;BMP280;15949;55.656;37.422;2023-04-15T23:05:39;100936.38;;;2.91
28803;BMP280;15949;55.656;37.422;2023-04-15T23:10:45;100938.13;;;2.85
28803;BMP280;15949;55.656;37.422;2023-04-15T23:15:51;100942.41;;;2.80
28803;BMP280;15949;55.656;37.422;2023-04-15T23:20:56;100944.19;;;2.79
28803;BMP280;15949;55.656;37.422;2023-04-15T23:26:02;100948.19;;;2.70
28803;BMP280;15949;55.656;37.422;2023-04-15T23:31:08;100951.16;;;2.62
28803;BMP280;15949;55.656;37.422;2023-04-15T23:36:14;100954.22;;;2.59
28803;BMP280;15949;55.656;37.422;2023-04-15T23:41:20;100958.34;;;2.60
28803;BMP280;15949;55.656;37.422;2023-04-15T23:46:26;100961.38;;;2.57
28803;BMP280;15949;55.656;37.422;2023-04-15T23:51:31;100961.09;;;2.53
28803;BMP280;15949;55.656;37.422;2023-04-15T23:56:37;100966.16;;;2.48
